Bondville, Illinois
Current Conditions -  °F | °C
As of 1:53 PM on Saturday 25 Oct 2014 (Local Time) from KCMI Reporting Station
Clear Clear  
Wind Chill: 25°   Ceiling: Unl
Heat Index: 26°   Visibility: 10mi
Dew Point: 11°   Wind: 13mph
Humidity: 42%   Direction: 310°NW
Pressure: 29.97"   Gusts: NA
Location:  40.11°N, 88.37°W
Report Text: KCMI 251853Z 31011KT 10SM CLR 25/11 A2997 RMK AO2 SLP147 T02500111 $
Loading
Personal Weather Stations






























Interactive Weather Map
Tropical Storm Tracking
New forecast layout! Learn more

10-Day Weather Forecast

Advertisements
Track Severe Weather on mobile